createdAt,value
2019-05-23T00:02:27.795Z,99.55
2019-05-23T00:05:06.995Z,100.00
2019-05-23T00:07:35.578Z,100.00
2019-05-23T00:10:05.964Z,100.00
2019-05-23T00:12:57.245Z,100.00
2019-05-23T00:15:28.579Z,100.00
2019-05-23T00:17:56.630Z,100.00
2019-05-23T00:20:25.123Z,100.00
2019-05-23T00:22:52.704Z,100.00
2019-05-23T00:25:21.745Z,100.00
2019-05-23T00:27:49.427Z,100.00
2019-05-23T00:30:24.031Z,100.00
2019-05-23T00:32:53.721Z,100.00
2019-05-23T00:35:23.323Z,100.00
2019-05-23T00:37:51.346Z,100.00
2019-05-23T00:40:19.113Z,100.00
2019-05-23T00:42:46.237Z,100.00
2019-05-23T00:45:15.126Z,100.00
2019-05-23T00:47:42.558Z,100.00
2019-05-23T00:50:11.400Z,100.00
2019-05-23T00:52:39.678Z,100.00
2019-05-23T00:55:09.932Z,100.00
2019-05-23T00:57:39.485Z,100.00
2019-05-23T01:00:08.900Z,100.00
2019-05-23T01:02:36.352Z,100.00
2019-05-23T01:05:04.040Z,100.00
2019-05-23T01:07:31.681Z,100.00
2019-05-23T01:09:59.012Z,100.00
2019-05-23T01:12:27.128Z,100.00
2019-05-23T01:14:55.205Z,100.00
2019-05-23T01:17:25.004Z,100.00
2019-05-23T01:19:53.795Z,100.00
2019-05-23T01:22:21.838Z,100.00
2019-05-23T01:24:51.970Z,100.00
2019-05-23T01:27:23.034Z,100.00
2019-05-23T01:29:51.985Z,100.00
2019-05-23T01:32:26.669Z,100.00
2019-05-23T01:34:54.993Z,100.00
2019-05-23T01:37:22.409Z,100.00
2019-05-23T01:39:50.204Z,100.00
2019-05-23T01:42:17.955Z,100.00
2019-05-23T01:44:46.944Z,100.00
2019-05-23T01:47:15.097Z,100.00
2019-05-23T01:49:43.735Z,100.00
2019-05-23T01:52:11.684Z,100.00
2019-05-23T01:54:39.969Z,100.00
2019-05-23T01:57:07.652Z,100.00
2019-05-23T01:59:35.441Z,100.00
2019-05-23T02:02:04.708Z,100.00
2019-05-23T02:04:32.155Z,100.00
2019-05-23T02:07:00.162Z,100.00
2019-05-23T02:09:27.606Z,100.00
2019-05-23T02:11:54.991Z,100.00
2019-05-23T02:14:22.708Z,100.00
2019-05-23T02:16:51.076Z,100.00
2019-05-23T02:19:18.951Z,100.00
2019-05-23T02:21:46.453Z,100.00
2019-05-23T02:24:14.404Z,100.00
2019-05-23T02:26:42.857Z,100.00
2019-05-23T02:29:11.198Z,100.00
2019-05-23T02:31:40.165Z,100.00
2019-05-23T02:34:08.101Z,100.00
2019-05-23T02:36:37.016Z,100.00
2019-05-23T02:39:18.449Z,100.00
2019-05-23T02:41:59.364Z,100.00
2019-05-23T02:44:28.829Z,100.00
2019-05-23T02:47:12.017Z,100.00
2019-05-23T02:49:40.369Z,100.00
2019-05-23T02:52:22.930Z,100.00
2019-05-23T02:54:52.225Z,100.00
2019-05-23T02:57:21.499Z,100.00
2019-05-23T02:59:52.657Z,100.00
2019-05-23T03:02:56.208Z,100.00
2019-05-23T03:05:25.952Z,100.00
2019-05-23T03:07:53.718Z,100.00
2019-05-23T03:10:24.007Z,100.00
2019-05-23T03:12:52.526Z,100.00
2019-05-23T03:15:21.438Z,100.00
2019-05-23T03:17:51.941Z,100.00
2019-05-23T03:20:21.104Z,100.00
2019-05-23T03:22:54.226Z,100.00
2019-05-23T03:26:19.225Z,100.00
2019-05-23T03:28:48.183Z,100.00
2019-05-23T03:31:30.912Z,100.00
2019-05-23T03:33:54.397Z,100.00
2019-05-23T03:36:22.871Z,100.00
2019-05-23T03:38:51.362Z,100.00
2019-05-23T03:41:19.521Z,100.00
2019-05-23T03:43:48.373Z,100.00
2019-05-23T03:46:19.221Z,100.00
2019-05-23T03:48:47.008Z,100.00
2019-05-23T03:51:16.715Z,100.00
2019-05-23T03:53:46.902Z,100.00
2019-05-23T03:56:15.545Z,100.00
2019-05-23T03:58:44.812Z,100.00
2019-05-23T04:01:12.897Z,100.00
2019-05-23T04:03:41.989Z,100.00
2019-05-23T04:06:09.993Z,100.00
2019-05-23T04:08:37.184Z,100.00
2019-05-23T04:11:04.348Z,100.00
2019-05-23T04:13:32.390Z,100.00
2019-05-23T04:16:00.171Z,100.00
2019-05-23T04:18:28.155Z,100.00
2019-05-23T04:20:56.522Z,100.00
2019-05-23T04:23:23.534Z,100.00
2019-05-23T04:25:51.058Z,100.00
2019-05-23T04:28:18.385Z,100.00
2019-05-23T04:30:45.790Z,100.00
2019-05-23T04:33:14.166Z,100.00
2019-05-23T04:35:41.324Z,100.00
2019-05-23T04:38:09.221Z,100.00
2019-05-23T04:40:36.394Z,100.00
2019-05-23T04:43:03.522Z,100.00
2019-05-23T04:45:33.448Z,100.00
2019-05-23T04:48:01.609Z,100.00
2019-05-23T04:50:29.213Z,100.00
2019-05-23T04:52:58.001Z,100.00
2019-05-23T04:55:25.334Z,100.00
2019-05-23T04:57:53.039Z,100.00
2019-05-23T05:00:20.638Z,100.00
2019-05-23T05:02:47.729Z,100.00
2019-05-23T05:05:14.955Z,100.00
2019-05-23T05:07:42.685Z,100.00
2019-05-23T05:10:12.167Z,100.00
2019-05-23T05:12:40.013Z,100.00
2019-05-23T05:15:07.779Z,100.00
2019-05-23T05:17:36.200Z,100.00
2019-05-23T05:20:04.673Z,100.00
2019-05-23T05:22:31.753Z,100.00
2019-05-23T05:24:59.398Z,100.00
2019-05-23T05:27:27.855Z,100.00
2019-05-23T05:29:55.496Z,100.00
2019-05-23T05:32:23.739Z,100.00
2019-05-23T05:34:52.196Z,100.00
2019-05-23T05:37:19.859Z,100.00
2019-05-23T05:39:46.922Z,100.00
2019-05-23T05:42:13.972Z,100.00
2019-05-23T05:44:41.749Z,100.00
2019-05-23T05:47:09.656Z,100.00
2019-05-23T05:49:37.447Z,100.00
2019-05-23T05:52:06.835Z,100.00
2019-05-23T05:54:35.008Z,100.00
2019-05-23T05:57:03.019Z,100.00
2019-05-23T05:59:30.750Z,100.00
2019-05-23T06:01:57.929Z,100.00
2019-05-23T06:04:24.991Z,100.00
2019-05-23T06:07:18.532Z,100.00
2019-05-23T06:09:46.858Z,100.00
2019-05-23T06:12:14.701Z,100.00
2019-05-23T06:14:42.089Z,100.00
2019-05-23T06:17:11.894Z,100.00
2019-05-23T06:19:39.850Z,100.00
2019-05-23T06:22:08.883Z,100.00
2019-05-23T06:24:46.541Z,99.58
2019-05-23T06:27:09.646Z,99.86
2019-05-23T06:29:37.206Z,100.00
2019-05-23T06:32:07.010Z,99.75
2019-05-23T06:34:34.834Z,100.00
2019-05-23T06:37:03.050Z,98.35
2019-05-23T06:39:30.789Z,97.51
2019-05-23T06:41:58.278Z,96.84
2019-05-23T06:44:26.436Z,98.19
2019-05-23T06:46:53.918Z,96.77
2019-05-23T06:49:20.979Z,97.51
2019-05-23T06:51:48.672Z,95.09
2019-05-23T06:54:15.917Z,94.23
2019-05-23T06:56:43.547Z,94.67
2019-05-23T06:59:13.108Z,93.32
2019-05-23T07:01:40.333Z,95.31
2019-05-23T07:04:08.415Z,92.13
2019-05-23T07:06:35.750Z,92.31
2019-05-23T07:09:07.986Z,91.68
2019-05-23T07:11:35.731Z,91.25
2019-05-23T07:14:04.225Z,91.72
2019-05-23T07:16:32.280Z,90.24
2019-05-23T07:18:59.895Z,87.27
2019-05-23T07:21:27.667Z,88.32
2019-05-23T07:23:56.029Z,89.05
2019-05-23T07:26:24.169Z,89.53
2019-05-23T07:28:52.029Z,87.20
2019-05-23T07:31:19.560Z,86.58
2019-05-23T07:34:00.961Z,85.84
2019-05-23T07:36:16.424Z,84.33
2019-05-23T07:38:43.598Z,86.74
2019-05-23T07:41:10.716Z,85.08
2019-05-23T07:43:38.181Z,85.31
2019-05-23T07:46:05.313Z,86.05
2019-05-23T07:48:33.847Z,86.76
2019-05-23T07:51:03.064Z,84.55
2019-05-23T07:53:44.061Z,83.23
2019-05-23T07:56:12.084Z,83.65
2019-05-23T07:58:39.295Z,84.80
2019-05-23T08:01:08.448Z,83.30
2019-05-23T08:03:36.411Z,83.72
2019-05-23T08:06:04.392Z,81.52
2019-05-23T08:08:32.876Z,83.80
2019-05-23T08:11:00.991Z,79.36
2019-05-23T08:13:28.902Z,78.33
2019-05-23T08:15:56.494Z,77.70
2019-05-23T08:18:24.529Z,77.87
2019-05-23T08:20:51.542Z,76.02
2019-05-23T08:23:20.093Z,77.75
2019-05-23T08:25:47.735Z,77.72
2019-05-23T08:28:15.916Z,75.59
2019-05-23T08:30:44.287Z,76.94
2019-05-23T08:33:11.871Z,75.28
2019-05-23T08:35:39.321Z,75.42
2019-05-23T08:38:06.851Z,75.18
2019-05-23T08:40:34.572Z,72.70
2019-05-23T08:43:01.877Z,74.42
2019-05-23T08:45:29.633Z,72.13
2019-05-23T08:47:56.991Z,72.36
2019-05-23T08:50:24.459Z,72.17
2019-05-23T08:52:51.888Z,72.37
2019-05-23T08:55:21.258Z,70.74
2019-05-23T08:57:53.382Z,68.07
2019-05-23T09:00:21.622Z,71.43
2019-05-23T09:02:51.190Z,69.56
2019-05-23T09:05:18.548Z,69.90
2019-05-23T09:07:46.066Z,67.62
2019-05-23T09:10:14.345Z,69.35
2019-05-23T09:12:42.207Z,67.77
2019-05-23T09:15:10.428Z,69.93
2019-05-23T09:17:52.236Z,66.53
2019-05-23T09:20:09.461Z,70.68
2019-05-23T09:22:36.532Z,67.66
2019-05-23T09:25:04.321Z,65.70
2019-05-23T09:27:34.755Z,66.47
2019-05-23T09:30:02.096Z,64.92
2019-05-23T09:32:30.461Z,67.42
2019-05-23T09:34:58.296Z,64.26
2019-05-23T09:37:28.045Z,64.23
2019-05-23T09:39:55.561Z,64.26
2019-05-23T09:42:22.623Z,61.76
2019-05-23T09:44:50.164Z,58.77
2019-05-23T09:47:17.818Z,61.20
2019-05-23T09:49:53.646Z,61.90
2019-05-23T09:52:15.954Z,60.76
2019-05-23T09:54:43.465Z,60.37
2019-05-23T09:57:25.057Z,60.47
2019-05-23T09:59:56.783Z,61.05
2019-05-23T10:02:21.743Z,59.87
2019-05-23T10:04:49.693Z,58.53
2019-05-23T10:07:17.131Z,59.61
2019-05-23T10:09:44.838Z,57.27
2019-05-23T10:12:12.573Z,58.83
2019-05-23T10:14:44.984Z,57.80
2019-05-23T10:17:13.291Z,56.94
2019-05-23T10:19:40.302Z,54.78
2019-05-23T10:22:08.114Z,53.52
2019-05-23T10:24:36.000Z,51.33
2019-05-23T10:27:05.111Z,51.41
2019-05-23T10:29:32.584Z,52.21
2019-05-23T10:31:59.648Z,56.72
2019-05-23T10:34:28.350Z,55.15
2019-05-23T10:36:55.690Z,52.43
2019-05-23T10:39:23.110Z,50.68
2019-05-23T10:41:50.879Z,57.06
2019-05-23T10:44:18.061Z,50.47
2019-05-23T10:46:46.295Z,51.40
2019-05-23T10:49:14.153Z,54.80
2019-05-23T10:51:41.404Z,54.91
2019-05-23T10:54:08.651Z,50.75
2019-05-23T10:56:36.154Z,55.38
2019-05-23T10:59:03.918Z,52.74
2019-05-23T11:01:32.679Z,55.47
2019-05-23T11:04:00.593Z,51.68
2019-05-23T11:06:28.005Z,56.02
2019-05-23T11:08:55.800Z,51.05
2019-05-23T11:11:23.097Z,51.76
2019-05-23T11:13:51.005Z,46.68
2019-05-23T11:16:18.425Z,48.05
2019-05-23T11:18:46.533Z,48.60
2019-05-23T11:21:13.995Z,46.58
2019-05-23T11:23:45.782Z,47.63
2019-05-23T11:26:13.570Z,51.22
2019-05-23T11:28:41.745Z,49.22
2019-05-23T11:31:10.056Z,44.52
2019-05-23T11:33:37.766Z,45.53
2019-05-23T11:36:04.917Z,48.78
2019-05-23T11:38:32.727Z,46.35
2019-05-23T11:41:00.222Z,44.84
2019-05-23T11:43:28.032Z,44.74
2019-05-23T11:46:03.808Z,45.05
2019-05-23T11:48:31.865Z,45.27
2019-05-23T11:50:59.203Z,48.14
2019-05-23T11:53:27.153Z,44.81
2019-05-23T11:55:54.974Z,47.17
2019-05-23T11:58:22.276Z,43.44
2019-05-23T12:01:20.975Z,44.24
2019-05-23T12:03:48.632Z,43.70
2019-05-23T12:06:16.094Z,44.95
2019-05-23T12:08:43.849Z,42.63
2019-05-23T12:11:13.212Z,42.09
2019-05-23T12:13:40.228Z,44.97
2019-05-23T12:16:08.547Z,45.18
2019-05-23T12:18:36.314Z,41.31
2019-05-23T12:21:03.315Z,38.86
2019-05-23T12:23:30.953Z,40.68
2019-05-23T12:25:58.315Z,39.05
2019-05-23T12:28:25.618Z,38.95
2019-05-23T12:30:53.336Z,48.13
2019-05-23T12:33:20.756Z,42.45
2019-05-23T12:35:48.240Z,41.13
2019-05-23T12:38:16.487Z,44.53
2019-05-23T12:40:43.989Z,41.70
2019-05-23T12:43:11.302Z,41.53
2019-05-23T12:45:39.219Z,40.39
2019-05-23T12:48:12.910Z,43.48
2019-05-23T12:50:42.949Z,39.66
2019-05-23T12:53:11.766Z,39.15
2019-05-23T12:55:39.475Z,38.42
2019-05-23T12:58:06.982Z,38.46
2019-05-23T13:00:46.670Z,38.04
2019-05-23T13:03:15.229Z,39.16
2019-05-23T13:05:43.083Z,36.75
2019-05-23T13:08:10.230Z,38.07
2019-05-23T13:10:38.321Z,37.82
2019-05-23T13:13:05.780Z,36.69
2019-05-23T13:15:33.857Z,40.73
2019-05-23T13:18:01.653Z,36.45
2019-05-23T13:20:29.059Z,35.26
2019-05-23T13:22:56.458Z,36.21
2019-05-23T13:25:24.612Z,36.56
2019-05-23T13:27:52.758Z,36.19
2019-05-23T13:30:20.291Z,41.24
2019-05-23T13:32:47.722Z,38.85
2019-05-23T13:35:15.259Z,37.91
2019-05-23T13:37:52.924Z,38.17
2019-05-23T13:40:12.402Z,38.62
2019-05-23T13:42:40.398Z,37.51
2019-05-23T13:45:08.790Z,37.15
2019-05-23T13:47:36.357Z,37.17
2019-05-23T13:50:04.035Z,37.29
2019-05-23T13:52:32.082Z,36.82
2019-05-23T13:54:59.541Z,39.69
2019-05-23T13:57:26.750Z,38.75
2019-05-23T13:59:53.920Z,39.13
2019-05-23T14:02:21.803Z,38.42
2019-05-23T14:04:49.878Z,40.02
2019-05-23T14:07:18.354Z,39.39
2019-05-23T14:09:45.899Z,39.88
2019-05-23T14:12:21.961Z,37.33
2019-05-23T14:14:42.943Z,39.91
2019-05-23T14:17:20.326Z,38.00
2019-05-23T14:19:48.266Z,38.13
2019-05-23T14:22:16.241Z,38.48
2019-05-23T14:24:43.837Z,37.92
2019-05-23T14:27:18.476Z,38.91
2019-05-23T14:29:46.237Z,36.68
2019-05-23T14:32:25.634Z,38.80
2019-05-23T14:34:53.896Z,39.23
2019-05-23T14:37:26.704Z,39.49
2019-05-23T14:39:56.914Z,39.00
2019-05-23T14:42:52.923Z,39.58
2019-05-23T14:45:47.850Z,37.11
2019-05-23T14:48:33.167Z,39.56
2019-05-23T14:51:18.826Z,40.43
2019-05-23T14:53:50.601Z,41.31
2019-05-23T14:56:19.549Z,36.14
2019-05-23T14:58:47.482Z,36.99
2019-05-23T15:01:14.880Z,39.46
2019-05-23T15:03:42.903Z,37.37
2019-05-23T15:06:10.888Z,37.69
2019-05-23T15:08:50.337Z,36.48
2019-05-23T15:11:07.249Z,41.94
2019-05-23T15:13:34.713Z,38.52
2019-05-23T15:16:04.148Z,37.53
2019-05-23T15:18:31.556Z,40.21
2019-05-23T15:20:59.350Z,38.59
2019-05-23T15:23:26.771Z,36.30
2019-05-23T15:25:54.934Z,38.72
2019-05-23T15:28:22.666Z,37.86
2019-05-23T15:30:50.539Z,38.19
2019-05-23T15:33:19.166Z,37.07
2019-05-23T15:35:47.432Z,38.13
2019-05-23T15:38:15.400Z,37.04
2019-05-23T15:40:43.129Z,36.64
2019-05-23T15:43:10.458Z,40.19
2019-05-23T15:45:37.776Z,38.37
2019-05-23T15:48:05.330Z,38.57
2019-05-23T15:50:39.345Z,40.08
2019-05-23T15:53:27.042Z,38.32
2019-05-23T15:55:58.664Z,38.75
2019-05-23T15:58:32.449Z,40.01
2019-05-23T16:01:06.546Z,36.82
2019-05-23T16:03:45.219Z,40.30
2019-05-23T16:06:14.166Z,35.98
2019-05-23T16:08:41.597Z,38.08
2019-05-23T16:11:09.007Z,38.37
2019-05-23T16:13:36.473Z,37.07
2019-05-23T16:16:04.130Z,37.82
2019-05-23T16:18:33.207Z,39.13
2019-05-23T16:21:00.323Z,37.36
2019-05-23T16:23:27.886Z,38.44
2019-05-23T16:25:55.157Z,39.03
2019-05-23T16:28:22.910Z,39.76
2019-05-23T16:30:50.864Z,37.44
2019-05-23T16:33:18.637Z,36.12
2019-05-23T16:35:46.428Z,36.17
2019-05-23T16:38:14.500Z,36.75
2019-05-23T16:40:42.292Z,35.67
2019-05-23T16:43:09.433Z,36.43
2019-05-23T16:45:37.163Z,36.72
2019-05-23T16:48:04.977Z,36.82
2019-05-23T16:50:32.812Z,36.52
2019-05-23T16:53:00.412Z,37.80
2019-05-23T16:55:35.283Z,39.58
2019-05-23T16:58:07.884Z,38.19
2019-05-23T17:00:53.945Z,37.79
2019-05-23T17:03:40.985Z,37.82
2019-05-23T17:06:27.734Z,38.03
2019-05-23T17:09:17.208Z,39.44
2019-05-23T17:11:59.074Z,38.99
2019-05-23T17:14:34.512Z,38.08
2019-05-23T17:17:36.501Z,38.27
2019-05-23T17:19:57.583Z,38.82
2019-05-23T17:22:37.448Z,39.53
2019-05-23T17:25:23.354Z,39.74
2019-05-23T17:28:14.006Z,40.22
2019-05-23T17:30:52.779Z,40.19
2019-05-23T17:33:21.110Z,41.96
2019-05-23T17:35:49.027Z,41.23
2019-05-23T17:38:16.533Z,41.99
2019-05-23T17:40:44.261Z,43.05
2019-05-23T17:43:11.499Z,42.22
2019-05-23T17:45:39.229Z,42.44
2019-05-23T17:48:07.167Z,42.87
2019-05-23T17:50:35.133Z,41.89
2019-05-23T17:53:02.785Z,43.07
2019-05-23T17:55:30.622Z,42.06
2019-05-23T17:57:58.107Z,41.29
2019-05-23T18:00:29.540Z,40.85
2019-05-23T18:02:57.429Z,41.30
2019-05-23T18:05:26.287Z,42.16
2019-05-23T18:07:53.446Z,43.41
2019-05-23T18:10:21.115Z,43.49
2019-05-23T18:12:48.237Z,41.99
2019-05-23T18:15:16.188Z,41.23
2019-05-23T18:17:44.237Z,42.29
2019-05-23T18:20:12.489Z,42.00
2019-05-23T18:22:40.717Z,42.82
2019-05-23T18:25:10.616Z,41.99
2019-05-23T18:27:38.805Z,41.69
2019-05-23T18:30:09.533Z,41.54
2019-05-23T18:32:37.211Z,43.72
2019-05-23T18:35:06.725Z,43.07
2019-05-23T18:37:34.336Z,44.61
2019-05-23T18:40:02.755Z,45.30
2019-05-23T18:42:30.101Z,45.96
2019-05-23T18:44:57.993Z,45.72
2019-05-23T18:47:32.360Z,46.76
2019-05-23T18:49:59.989Z,47.25
2019-05-23T18:52:27.463Z,47.42
2019-05-23T18:54:54.732Z,48.46
2019-05-23T18:57:22.295Z,47.49
2019-05-23T18:59:50.621Z,48.41
2019-05-23T19:02:18.659Z,49.30
2019-05-23T19:04:47.056Z,48.19
2019-05-23T19:07:15.201Z,50.34
2019-05-23T19:09:43.388Z,50.09
2019-05-23T19:12:11.110Z,50.13
2019-05-23T19:14:38.259Z,50.46
2019-05-23T19:17:06.016Z,51.26
2019-05-23T19:19:33.628Z,51.67
2019-05-23T19:22:00.704Z,51.80
2019-05-23T19:24:28.604Z,51.92
2019-05-23T19:26:56.018Z,52.85
2019-05-23T19:29:23.705Z,53.58
2019-05-23T19:31:50.919Z,54.09
2019-05-23T19:34:18.527Z,54.53
2019-05-23T19:36:46.070Z,54.79
2019-05-23T19:39:14.735Z,55.02
2019-05-23T19:41:43.020Z,55.49
2019-05-23T19:44:10.263Z,55.82
2019-05-23T19:46:37.948Z,56.23
2019-05-23T19:49:06.220Z,56.94
2019-05-23T19:51:33.315Z,56.37
2019-05-23T19:54:00.745Z,56.43
2019-05-23T19:56:28.605Z,56.71
2019-05-23T19:58:56.340Z,59.67
2019-05-23T20:01:26.823Z,58.59
2019-05-23T20:03:54.439Z,58.50
2019-05-23T20:06:21.865Z,59.11
2019-05-23T20:08:49.021Z,59.04
2019-05-23T20:11:16.620Z,59.37
2019-05-23T20:13:43.715Z,59.71
2019-05-23T20:16:11.173Z,60.05
2019-05-23T20:18:39.371Z,61.06
2019-05-23T20:21:07.089Z,61.70
2019-05-23T20:23:34.828Z,61.98
2019-05-23T20:26:02.817Z,63.92
2019-05-23T20:28:30.225Z,64.77
2019-05-23T20:30:58.412Z,65.79
2019-05-23T20:33:26.381Z,66.45
2019-05-23T20:35:53.473Z,65.87
2019-05-23T20:38:21.189Z,65.45
2019-05-23T20:40:48.614Z,66.65
2019-05-23T20:43:16.110Z,66.64
2019-05-23T20:45:44.444Z,66.55
2019-05-23T20:48:12.286Z,67.82
2019-05-23T20:50:40.413Z,66.89
2019-05-23T20:53:07.981Z,66.63
2019-05-23T20:55:35.267Z,67.57
2019-05-23T20:58:02.351Z,67.18
2019-05-23T21:00:48.055Z,67.37
2019-05-23T21:03:15.517Z,65.90
2019-05-23T21:05:43.711Z,65.91
2019-05-23T21:08:11.620Z,65.76
2019-05-23T21:10:47.178Z,67.97
2019-05-23T21:13:15.129Z,67.73
2019-05-23T21:15:42.849Z,68.08
2019-05-23T21:18:09.910Z,66.43
2019-05-23T21:20:37.257Z,67.31
2019-05-23T21:23:04.309Z,67.99
2019-05-23T21:25:32.345Z,67.31
2019-05-23T21:28:03.049Z,66.69
2019-05-23T21:30:30.857Z,66.41
2019-05-23T21:32:58.563Z,67.00
2019-05-23T21:35:25.610Z,67.02
2019-05-23T21:37:52.671Z,67.67
2019-05-23T21:40:42.847Z,67.73
2019-05-23T21:43:10.324Z,70.05
2019-05-23T21:45:37.389Z,71.40
2019-05-23T21:48:04.945Z,71.75
2019-05-23T21:50:32.137Z,70.73
2019-05-23T21:52:59.987Z,71.03
2019-05-23T21:55:34.838Z,73.00
2019-05-23T21:58:03.279Z,71.91
2019-05-23T22:01:07.707Z,72.43
2019-05-23T22:03:37.265Z,72.27
2019-05-23T22:06:08.566Z,75.52
2019-05-23T22:08:35.739Z,74.34
2019-05-23T22:11:02.847Z,73.62
2019-05-23T22:13:30.238Z,75.41
2019-05-23T22:15:58.210Z,76.26
2019-05-23T22:18:25.758Z,76.84
2019-05-23T22:20:52.792Z,77.09
2019-05-23T22:23:20.717Z,76.79
2019-05-23T22:25:49.079Z,76.74
2019-05-23T22:28:16.347Z,77.82
2019-05-23T22:30:43.868Z,78.29
2019-05-23T22:33:12.185Z,79.31
2019-05-23T22:35:39.304Z,78.54
2019-05-23T22:38:07.127Z,79.55
2019-05-23T22:40:38.451Z,80.11
2019-05-23T22:43:18.660Z,80.24
2019-05-23T22:45:34.357Z,80.02
2019-05-23T22:48:02.706Z,80.08
2019-05-23T22:50:29.754Z,79.45
2019-05-23T22:52:57.668Z,79.71
2019-05-23T22:55:25.175Z,78.71
2019-05-23T22:57:52.569Z,79.73
2019-05-23T23:00:28.000Z,79.77
2019-05-23T23:02:55.331Z,79.79
2019-05-23T23:05:22.516Z,79.04
2019-05-23T23:07:49.555Z,78.76
2019-05-23T23:10:17.146Z,77.86
2019-05-23T23:12:44.668Z,78.51
2019-05-23T23:15:12.193Z,79.85
2019-05-23T23:17:39.911Z,78.56
2019-05-23T23:20:07.762Z,79.26
2019-05-23T23:22:35.156Z,80.14
2019-05-23T23:25:02.576Z,80.05
2019-05-23T23:27:30.766Z,79.75
2019-05-23T23:29:57.762Z,82.84
2019-05-23T23:32:25.247Z,85.23
2019-05-23T23:34:52.473Z,86.23
2019-05-23T23:37:19.800Z,86.19
2019-05-23T23:39:47.642Z,87.61
2019-05-23T23:42:14.652Z,88.95
2019-05-23T23:44:41.331Z,90.58
2019-05-23T23:47:26.987Z,91.37
2019-05-23T23:50:12.301Z,91.78
2019-05-23T23:52:57.706Z,91.91
2019-05-23T23:55:43.244Z,91.97
2019-05-23T23:58:10.318Z,91.50
